Weather History for KGLE - February, 2013

Change the Weather History Date:

Wednesday, February 20, 2013

  Actual Average (KDTO) Record (KDTO)
Temperature  
Mean Temperature 40 °F -  
Max Temperature 46 °F 58 °F 82 °F (2005)
Min Temperature 33 °F 37 °F 30 °F (2006)
Degree Days  
Heating Degree Days 26    
Moisture  
Dew Point 34 °F    
Average Humidity 86    
Maximum Humidity 100    
Minimum Humidity 53    
Precipitation  
Precipitation 0.38 in - - ()
Sea Level Pressure  
Sea Level Pressure 30.07 in    
Wind  
Wind Speed 12 mph (East)    
Max Wind Speed 21 mph    
Max Gust Speed 28 mph    
Visibility 10 miles    
Events Rain , Snow    
Averages and records for this station are not official NWS values.
T = Trace of Precipitation, MM = Missing Value Source: NWS Daily Summary

Daily Weather History Graph

Daily Weather History Graph

Search for Another Location

Airport or City:

Trip Planner

Search our weather history database for the weather conditions in past years. The results will help you decide how hot, cold, wet, or windy it might be!

Date:

Astronomy

Feb. 20, 2013 Rise Set
Actual Time 7:07 AM CST 6:17 PM CST
Civil Twilight 6:42 AM CST 6:43 PM CST
Nautical Twilight 6:13 AM CST 7:12 PM CST
Astronomical Twilight 5:44 AM CST 7:41 PM CST
Moon 1:48 PM CST (2/20) 3:20 AM CST (2/20)
Length of Visible Light 12h 01m
Length of Day
11h 10m
Waxing Gibbous, 76% of the Moon is Illuminated
Feb 20
Waxing Gibbous
Feb 25
Full
Mar 4
Last Quarter
Mar 11
New
Mar 19
First Quarter

Hourly Weather History & Observations

Time (CST) Temp. Windchill Dew Point Humidity Pressure Visibility Wind Dir Wind Speed Gust Speed Precip Events Conditions
12:15 AM 46.4 °F 42.9 °F 30.2 °F 53% 30.20 in 10.0 mi East 6.9 mph - N/A   Light Drizzle
12:35 AM 44.6 °F 42.2 °F 32.0 °F 61% 30.20 in 10.0 mi ESE 4.6 mph - N/A Rain Rain
12:55 AM 44.6 °F 40.7 °F 32.0 °F 61% 30.21 in 10.0 mi ESE 6.9 mph - N/A Rain Light Rain
1:15 AM 44.6 °F 39.7 °F 32.0 °F 61% 30.20 in 10.0 mi East 9.2 mph - N/A   Overcast
1:35 AM 46.4 °F 41.9 °F 30.2 °F 53% 30.19 in 10.0 mi East 9.2 mph - N/A   Overcast
1:55 AM 44.6 °F 41.4 °F 33.8 °F 66% 30.18 in 10.0 mi East 5.8 mph - N/A Rain Light Rain
2:15 AM 44.6 °F 42.2 °F 35.6 °F 71% 30.19 in 10.0 mi East 4.6 mph - N/A   Drizzle
2:35 AM 44.6 °F 43.1 °F 35.6 °F 71% 30.20 in 10.0 mi East 3.5 mph - N/A Rain Rain
2:55 AM 42.8 °F 37.0 °F 35.6 °F 76% 30.19 in 10.0 mi East 10.4 mph - 0.02 in Rain Rain
3:15 AM 42.8 °F 37.0 °F 37.4 °F 81% 30.21 in 10.0 mi SE 10.4 mph 16.1 mph 0.02 in Rain Rain
3:35 AM 39.2 °F 32.0 °F 35.6 °F 87% 30.21 in 7.0 mi ESE 11.5 mph - 0.05 in Rain Rain
3:55 AM 37.4 °F 30.8 °F 35.6 °F 93% 30.22 in 5.0 mi ESE 9.2 mph - 0.09 in Rain Rain
4:15 AM 37.4 °F 28.9 °F 35.6 °F 93% 30.18 in 7.0 mi East 13.8 mph 18.4 mph 0.05 in Rain Rain
4:35 AM 35.6 °F 27.5 °F 33.8 °F 93% 30.15 in 4.0 mi East 11.5 mph - 0.12 in Snow Light Snow
4:55 AM 35.6 °F 27.1 °F 35.6 °F 100% 30.13 in 10.0 mi East 12.7 mph - 0.14 in Rain Light Rain
5:15 AM 37.4 °F 30.8 °F 35.6 °F 93% 30.15 in 10.0 mi ENE 9.2 mph - N/A Rain Light Rain
5:35 AM 35.6 °F 26.2 °F 35.6 °F 100% 30.12 in 7.0 mi ENE 15.0 mph - N/A Rain Light Rain
5:55 AM 35.6 °F 27.5 °F 33.8 °F 93% 30.14 in 10.0 mi NE 11.5 mph 18.4 mph 0.06 in Rain Light Rain
6:15 AM 35.6 °F 28.0 °F 33.8 °F 93% 30.15 in 10.0 mi NE 10.4 mph 18.4 mph N/A   Overcast
6:35 AM 35.6 °F 28.0 °F 33.8 °F 93% 30.17 in 10.0 mi NE 10.4 mph - N/A   Overcast
6:55 AM 35.6 °F 29.9 °F 35.6 °F 100% 30.22 in 10.0 mi NNE 6.9 mph - N/A   Overcast
7:15 AM 35.6 °F 29.9 °F 35.6 °F 100% 30.22 in 7.0 mi NNE 6.9 mph - 0.01 in Rain Light Rain
7:35 AM 35.6 °F 28.0 °F 35.6 °F 100% 30.22 in 10.0 mi NE 10.4 mph - 0.01 in Rain Light Rain
7:55 AM 35.6 °F 27.1 °F 35.6 °F 100% 30.20 in 7.0 mi NE 12.7 mph - 0.02 in Rain Light Rain
8:15 AM 35.6 °F 26.2 °F 35.6 °F 100% 30.18 in 10.0 mi ENE 15.0 mph 18.4 mph 0.01 in Rain Light Rain
8:35 AM 35.6 °F 26.6 °F 35.6 °F 100% 30.18 in 10.0 mi ENE 13.8 mph 20.7 mph 0.01 in   Overcast
8:55 AM 35.6 °F 26.6 °F 35.6 °F 100% 30.19 in 10.0 mi ENE 13.8 mph - 0.01 in   Light Drizzle
9:15 AM 37.4 °F 28.2 °F 35.6 °F 93% 30.20 in 10.0 mi ENE 16.1 mph 20.7 mph N/A   Overcast
9:35 AM 37.4 °F 27.2 °F 35.6 °F 93% 30.17 in 10.0 mi ENE 19.6 mph 26.5 mph N/A   Overcast
9:55 AM 37.4 °F 27.5 °F 35.6 °F 93% 30.15 in 10.0 mi ENE 18.4 mph 24.2 mph N/A   Overcast
10:15 AM 37.4 °F 27.8 °F 35.6 °F 93% 30.14 in 10.0 mi ENE 17.3 mph 24.2 mph N/A   Overcast
10:35 AM 37.4 °F 27.2 °F 35.6 °F 93% 30.13 in 10.0 mi ENE 19.6 mph 25.3 mph N/A   Overcast
10:55 AM 39.2 °F 29.8 °F 35.6 °F 87% 30.13 in 10.0 mi East 18.4 mph 21.9 mph 0.01 in Rain Light Rain
11:15 AM 39.2 °F 30.8 °F 35.6 °F 87% 30.12 in 10.0 mi East 15.0 mph 24.2 mph N/A   Overcast
11:35 AM 39.2 °F 30.8 °F 35.6 °F 87% 30.10 in 10.0 mi East 15.0 mph 24.2 mph N/A   Overcast
12:15 PM 39.2 °F 30.5 °F 35.6 °F 87% 30.09 in - East 16.1 mph 26.5 mph 0.03 in   Unknown
12:35 PM 39.2 °F 30.5 °F 33.8 °F 81% 30.09 in 10.0 mi East 16.1 mph 21.9 mph 0.03 in   Overcast
12:55 PM 39.2 °F 30.8 °F 35.6 °F 87% 30.07 in 10.0 mi East 15.0 mph - 0.03 in Rain Light Rain
1:15 PM 41.0 °F 32.5 °F 35.6 °F 81% 30.06 in 10.0 mi East 17.3 mph 24.2 mph N/A   Overcast
1:35 PM 41.0 °F 32.2 °F 35.6 °F 81% 30.05 in 10.0 mi East 18.4 mph 27.6 mph N/A   Overcast
1:55 PM 41.0 °F 32.8 °F 35.6 °F 81% 30.05 in 10.0 mi East 16.1 mph 23.0 mph N/A   Overcast
2:15 PM 39.2 °F 31.2 °F 35.6 °F 87% 30.04 in 10.0 mi East 13.8 mph 24.2 mph N/A   Overcast
2:35 PM 39.2 °F 30.2 °F 35.6 °F 87% 30.03 in 10.0 mi East 17.3 mph - N/A   Overcast
2:55 PM 39.2 °F 29.8 °F 33.8 °F 81% 30.01 in 10.0 mi East 18.4 mph 25.3 mph N/A   Overcast
3:15 PM 39.2 °F 31.2 °F 33.8 °F 81% 30.00 in 10.0 mi East 13.8 mph 24.2 mph N/A   Overcast
3:35 PM 39.2 °F 30.5 °F 33.8 °F 81% 30.00 in 10.0 mi East 16.1 mph 23.0 mph N/A   Overcast
3:55 PM 37.4 °F 27.8 °F 33.8 °F 87% 29.98 in 10.0 mi East 17.3 mph 26.5 mph N/A   Overcast
4:15 PM 37.4 °F 27.8 °F 33.8 °F 87% 29.98 in 10.0 mi East 17.3 mph 27.6 mph N/A   Overcast
4:35 PM 37.4 °F 27.5 °F 33.8 °F 87% 29.97 in 10.0 mi East 18.4 mph 24.2 mph N/A   Overcast
4:55 PM 37.4 °F 27.2 °F 33.8 °F 87% 29.97 in 10.0 mi East 19.6 mph 26.5 mph N/A   Overcast
5:15 PM 35.6 °F 24.5 °F 32.0 °F 87% 29.96 in 10.0 mi East 20.7 mph - N/A   Overcast
5:35 PM 35.6 °F 25.9 °F 32.0 °F 87% 29.95 in 10.0 mi East 16.1 mph 24.2 mph N/A   Overcast
5:55 PM 35.6 °F 25.5 °F 32.0 °F 87% 29.96 in 10.0 mi East 17.3 mph - N/A   Overcast
6:15 PM 35.6 °F 25.9 °F 32.0 °F 87% 29.96 in 10.0 mi East 16.1 mph - N/A   Overcast
6:35 PM 35.6 °F 25.5 °F 32.0 °F 87% 29.95 in 10.0 mi East 17.3 mph 24.2 mph N/A   Overcast
6:55 PM 35.6 °F 26.2 °F 32.0 °F 87% 29.95 in 10.0 mi East 15.0 mph 23.0 mph N/A   Overcast
7:15 PM 35.6 °F 26.2 °F 32.0 °F 87% 29.95 in 10.0 mi East 15.0 mph 20.7 mph N/A   Overcast
7:35 PM 35.6 °F 25.2 °F 32.0 °F 87% 29.95 in 10.0 mi East 18.4 mph 23.0 mph N/A   Overcast
7:55 PM 35.6 °F 25.2 °F 32.0 °F 87% 29.95 in 10.0 mi East 18.4 mph 21.9 mph N/A   Overcast
8:15 PM 35.6 °F 25.9 °F 32.0 °F 87% 29.95 in 10.0 mi East 16.1 mph - N/A   Overcast
8:35 PM 35.6 °F 26.6 °F 32.0 °F 87% 29.94 in 10.0 mi East 13.8 mph 21.9 mph N/A   Overcast
8:55 PM 35.6 °F 25.5 °F 32.0 °F 87% 29.93 in 10.0 mi East 17.3 mph 21.9 mph N/A   Overcast
9:15 PM 33.8 °F 23.2 °F 32.0 °F 93% 29.92 in 10.0 mi East 17.3 mph 21.9 mph N/A   Overcast
9:35 PM 33.8 °F 23.5 °F 32.0 °F 93% 29.91 in 10.0 mi East 16.1 mph - N/A   Overcast
9:55 PM 33.8 °F 23.5 °F 32.0 °F 93% 29.91 in 10.0 mi East 16.1 mph 19.6 mph N/A   Overcast
10:15 PM 35.6 °F 27.1 °F 32.0 °F 87% 29.90 in 10.0 mi East 12.7 mph 20.7 mph N/A   Overcast
10:35 PM 35.6 °F 26.6 °F 32.0 °F 87% 29.90 in 10.0 mi East 13.8 mph 18.4 mph N/A   Overcast
10:55 PM 35.6 °F 27.5 °F 32.0 °F 87% 29.88 in 10.0 mi East 11.5 mph - N/A   Overcast
11:15 PM 35.6 °F 27.1 °F 32.0 °F 87% 29.86 in 10.0 mi East 12.7 mph 21.9 mph N/A   Light Drizzle
11:35 PM 35.6 °F 26.2 °F 32.0 °F 87% 29.85 in 10.0 mi East 15.0 mph - N/A   Overcast
11:55 PM 35.6 °F 27.1 °F 32.0 °F 87% 29.84 in 10.0 mi East 12.7 mph 19.6 mph N/A   Overcast